Terminal Aerodrome Forecast
Issued by NWS

Home | Current Version | Previous Version | Text Only | Print | Product List | Glossary On
Versions: 1 2 3 4 5 6 7 8 9 10 11 12
000
FTUS41 KPHI 302320
TAFPNE
TAF
KPNE 302320Z 3100/3124 22010KT P6SM FEW100
     FM310200 23005KT P6SM SCT200
     FM311600 26008G18KT P6SM SCT050 BKN200
     FM312200 25005KT P6SM SCT050=

USA.gov is the U.S. government's official web portal to all federal, state and local government web resources and services.